sensor_id;sensor_type;location;lat;lon;timestamp;pressure;altitude;pressure_sealevel;temperature;humidity
32642;BME280;19323;56.072;9.698;2022-08-04T00:00:10;100735.81;;;29.32;41.67
32642;BME280;19323;56.072;9.698;2022-08-04T00:05:24;100732.25;;;29.32;41.67
32642;BME280;19323;56.072;9.698;2022-08-04T00:08:04;100726.84;;;29.32;41.67
32642;BME280;19323;56.072;9.698;2022-08-04T00:10:32;100714.47;;;29.23;41.73
32642;BME280;19323;56.072;9.698;2022-08-04T00:13:03;100735.97;;;29.31;41.74
32642;BME280;19323;56.072;9.698;2022-08-04T00:15:32;100732.25;;;29.32;41.66
32642;BME280;19323;56.072;9.698;2022-08-04T00:18:08;100737.63;;;29.32;41.74
32642;BME280;19323;56.072;9.698;2022-08-04T00:20:38;100740.34;;;29.32;41.65
32642;BME280;19323;56.072;9.698;2022-08-04T00:23:07;100735.97;;;29.31;41.65
32642;BME280;19323;56.072;9.698;2022-08-04T00:25:37;100719.31;;;29.27;41.59
32642;BME280;19323;56.072;9.698;2022-08-04T00:28:06;100719.88;;;29.23;41.67
32642;BME280;19323;56.072;9.698;2022-08-04T00:30:32;100739.50;;;29.31;41.62
32642;BME280;19323;56.072;9.698;2022-08-04T00:32:59;100734.09;;;29.31;41.54
32642;BME280;19323;56.072;9.698;2022-08-04T00:35:27;100736.81;;;29.31;41.58
32642;BME280;19323;56.072;9.698;2022-08-04T00:38:16;100709.63;;;29.18;41.70
32642;BME280;19323;56.072;9.698;2022-08-04T01:05:20;100731.59;;;29.30;41.41
32642;BME280;19323;56.072;9.698;2022-08-04T01:07:56;100726.19;;;29.30;41.40
32642;BME280;19323;56.072;9.698;2022-08-04T01:13:09;100673.41;;;28.98;41.26
32642;BME280;19323;56.072;9.698;2022-08-04T01:18:54;100720.78;;;29.30;41.36
32642;BME280;19323;56.072;9.698;2022-08-04T01:26:42;100719.78;;;29.31;41.55
32642;BME280;19323;56.072;9.698;2022-08-04T01:29:26;100716.25;;;29.30;41.57
32642;BME280;19323;56.072;9.698;2022-08-04T01:32:30;100714.56;;;29.29;41.60
32642;BME280;19323;56.072;9.698;2022-08-04T01:35:04;100712.69;;;29.30;41.58
32642;BME280;19323;56.072;9.698;2022-08-04T01:38:02;100713.56;;;29.30;41.41
32642;BME280;19323;56.072;9.698;2022-08-04T01:40:51;100711.69;;;29.31;41.35
32642;BME280;19323;56.072;9.698;2022-08-04T01:43:20;100710.88;;;29.30;41.52
32642;BME280;19323;56.072;9.698;2022-08-04T01:45:55;100710.88;;;29.30;41.55
32642;BME280;19323;56.072;9.698;2022-08-04T01:48:24;100714.41;;;29.31;41.49
32642;BME280;19323;56.072;9.698;2022-08-04T01:50:52;100707.97;;;29.32;41.44
32642;BME280;19323;56.072;9.698;2022-08-04T01:53:20;100721.44;;;29.32;41.66
32642;BME280;19323;56.072;9.698;2022-08-04T01:55:48;100718.75;;;29.32;41.50
32642;BME280;19323;56.072;9.698;2022-08-04T01:58:22;100718.56;;;29.33;41.41
32642;BME280;19323;56.072;9.698;2022-08-04T02:00:55;100719.63;;;29.32;41.48
32642;BME280;19323;56.072;9.698;2022-08-04T02:03:23;100690.38;;;29.21;41.30
32642;BME280;19323;56.072;9.698;2022-08-04T02:06:22;100655.47;;;29.05;41.47
32642;BME280;19323;56.072;9.698;2022-08-04T02:09:11;100707.97;;;29.32;41.56
32642;BME280;19323;56.072;9.698;2022-08-04T02:11:48;100711.53;;;29.32;41.41
32642;BME280;19323;56.072;9.698;2022-08-04T02:14:24;100712.53;;;29.31;41.35
32642;BME280;19323;56.072;9.698;2022-08-04T02:17:30;100718.97;;;29.30;41.27
32642;BME280;19323;56.072;9.698;2022-08-04T02:20:06;100730.41;;;29.32;41.34
32642;BME280;19323;56.072;9.698;2022-08-04T02:22:39;100720.34;;;29.26;41.58
32642;BME280;19323;56.072;9.698;2022-08-04T02:25:08;100720.91;;;29.22;41.52
32642;BME280;19323;56.072;9.698;2022-08-04T02:33:23;100735.81;;;29.32;41.67
32642;BME280;19323;56.072;9.698;2022-08-04T02:35:53;100727.69;;;29.32;41.51
32642;BME280;19323;56.072;9.698;2022-08-04T02:39:00;100729.53;;;29.32;41.39
32642;BME280;19323;56.072;9.698;2022-08-04T02:41:28;100721.66;;;29.30;41.45
32642;BME280;19323;56.072;9.698;2022-08-04T02:43:58;100710.88;;;29.30;41.43
32642;BME280;19323;56.072;9.698;2022-08-04T02:46:27;100714.41;;;29.31;41.62
32642;BME280;19323;56.072;9.698;2022-08-04T02:48:54;100713.56;;;29.30;41.60
32642;BME280;19323;56.072;9.698;2022-08-04T02:51:29;100682.28;;;29.21;41.41
32642;BME280;19323;56.072;9.698;2022-08-04T02:53:58;100688.63;;;29.28;41.72
32642;BME280;19323;56.072;9.698;2022-08-04T02:56:28;100688.25;;;29.31;41.67
32642;BME280;19323;56.072;9.698;2022-08-04T02:58:59;100676.06;;;29.21;41.69
32642;BME280;19323;56.072;9.698;2022-08-04T03:01:25;100693.63;;;29.31;41.51
32642;BME280;19323;56.072;9.698;2022-08-04T03:18:43;100701.09;;;29.29;41.54
32642;BME280;19323;56.072;9.698;2022-08-04T03:21:38;100699.22;;;29.30;41.61
32642;BME280;19323;56.072;9.698;2022-08-04T03:41:30;100691.97;;;29.30;41.64
32642;BME280;19323;56.072;9.698;2022-08-04T03:58:54;100681.38;;;29.29;41.72
32642;BME280;19323;56.072;9.698;2022-08-04T04:05:09;100668.72;;;29.29;41.82
32642;BME280;19323;56.072;9.698;2022-08-04T04:13:55;100653.56;;;29.28;41.95
32642;BME280;19323;56.072;9.698;2022-08-04T04:16:37;100656.25;;;29.28;41.99
32642;BME280;19323;56.072;9.698;2022-08-04T04:22:18;100660.63;;;29.29;41.89
32642;BME280;19323;56.072;9.698;2022-08-04T04:25:03;100654.22;;;29.30;41.94
32642;BME280;19323;56.072;9.698;2022-08-04T04:39:48;100643.44;;;29.30;41.95
32642;BME280;19323;56.072;9.698;2022-08-04T04:48:29;100613.75;;;29.30;41.90
32642;BME280;19323;56.072;9.698;2022-08-04T04:51:19;100618.09;;;29.31;42.10
32642;BME280;19323;56.072;9.698;2022-08-04T04:53:50;100621.84;;;29.30;42.12
32642;BME280;19323;56.072;9.698;2022-08-04T04:56:47;100615.41;;;29.31;42.16
32642;BME280;19323;56.072;9.698;2022-08-04T04:59:20;100615.41;;;29.31;41.96
32642;BME280;19323;56.072;9.698;2022-08-04T05:02:14;100621.63;;;29.32;42.04
32642;BME280;19323;56.072;9.698;2022-08-04T05:05:01;100618.94;;;29.32;41.98
32642;BME280;19323;56.072;9.698;2022-08-04T05:08:04;100624.34;;;29.32;42.05
32642;BME280;19323;56.072;9.698;2022-08-04T05:11:14;100622.50;;;29.32;42.21
32642;BME280;19323;56.072;9.698;2022-08-04T05:14:03;100620.81;;;29.31;42.14
32642;BME280;19323;56.072;9.698;2022-08-04T05:17:16;100618.09;;;29.31;41.93
32642;BME280;19323;56.072;9.698;2022-08-04T05:22:33;100616.25;;;29.32;41.88
32642;BME280;19323;56.072;9.698;2022-08-04T05:25:05;100616.06;;;29.33;42.09
32642;BME280;19323;56.072;9.698;2022-08-04T05:27:49;100616.06;;;29.33;41.91
32642;BME280;19323;56.072;9.698;2022-08-04T05:30:16;100499.00;;;28.68;42.10
32642;BME280;19323;56.072;9.698;2022-08-04T05:33:00;100577.47;;;29.18;42.04
32642;BME280;19323;56.072;9.698;2022-08-04T05:35:36;100610.66;;;29.33;42.18
32642;BME280;19323;56.072;9.698;2022-08-04T05:38:30;100603.97;;;29.29;41.89
32642;BME280;19323;56.072;9.698;2022-08-04T05:40:56;100610.66;;;29.33;42.01
32642;BME280;19323;56.072;9.698;2022-08-04T05:43:24;100605.28;;;29.33;42.06
32642;BME280;19323;56.072;9.698;2022-08-04T05:45:52;100599.88;;;29.33;42.21
32642;BME280;19323;56.072;9.698;2022-08-04T05:48:20;100581.88;;;29.19;42.06
32642;BME280;19323;56.072;9.698;2022-08-04T05:50:47;100598.41;;;29.31;42.14
32642;BME280;19323;56.072;9.698;2022-08-04T05:53:14;100599.69;;;29.35;42.10
32642;BME280;19323;56.072;9.698;2022-08-04T05:55:42;100595.97;;;29.36;41.96
32642;BME280;19323;56.072;9.698;2022-08-04T05:58:27;100591.41;;;29.36;41.85
32642;BME280;19323;56.072;9.698;2022-08-04T06:00:56;100590.56;;;29.36;41.82
32642;BME280;19323;56.072;9.698;2022-08-04T06:03:24;100586.84;;;29.37;41.75
32642;BME280;19323;56.072;9.698;2022-08-04T06:05:53;100585.00;;;29.37;41.82
32642;BME280;19323;56.072;9.698;2022-08-04T06:08:19;100578.78;;;29.37;42.08
32642;BME280;19323;56.072;9.698;2022-08-04T06:10:47;100579.59;;;29.37;41.70
32642;BME280;19323;56.072;9.698;2022-08-04T06:13:18;100579.59;;;29.37;41.88
32642;BME280;19323;56.072;9.698;2022-08-04T06:16:07;100580.44;;;29.38;41.63
32642;BME280;19323;56.072;9.698;2022-08-04T06:18:44;100574.84;;;29.40;41.72
32642;BME280;19323;56.072;9.698;2022-08-04T06:21:32;100580.25;;;29.40;41.88
32642;BME280;19323;56.072;9.698;2022-08-04T06:24:01;100571.50;;;29.37;42.12
32642;BME280;19323;56.072;9.698;2022-08-04T06:26:32;100579.22;;;29.41;42.02
32642;BME280;19323;56.072;9.698;2022-08-04T06:29:00;100563.16;;;29.32;42.03
32642;BME280;19323;56.072;9.698;2022-08-04T06:31:28;100580.06;;;29.41;42.18
32642;BME280;19323;56.072;9.698;2022-08-04T06:34:29;100573.63;;;29.42;42.16
32642;BME280;19323;56.072;9.698;2022-08-04T06:36:57;100572.81;;;29.42;42.26
32642;BME280;19323;56.072;9.698;2022-08-04T06:39:24;100566.56;;;29.41;42.28
32642;BME280;19323;56.072;9.698;2022-08-04T06:41:53;100571.56;;;29.44;42.21
32642;BME280;19323;56.072;9.698;2022-08-04T06:44:41;100559.66;;;29.38;42.24
32642;BME280;19323;56.072;9.698;2022-08-04T06:47:09;100550.50;;;29.33;42.23
32642;BME280;19323;56.072;9.698;2022-08-04T06:49:40;100545.28;;;29.31;42.27
32642;BME280;19323;56.072;9.698;2022-08-04T06:52:27;100565.78;;;29.47;42.17
32642;BME280;19323;56.072;9.698;2022-08-04T06:54:56;100567.47;;;29.48;42.37
32642;BME280;19323;56.072;9.698;2022-08-04T06:57:27;100567.31;;;29.50;42.12
32642;BME280;19323;56.072;9.698;2022-08-04T06:59:59;100560.03;;;29.50;42.15
32642;BME280;19323;56.072;9.698;2022-08-04T07:02:29;100544.13;;;29.41;42.18
32642;BME280;19323;56.072;9.698;2022-08-04T07:04:57;100562.34;;;29.53;42.11
32642;BME280;19323;56.072;9.698;2022-08-04T07:07:24;100561.50;;;29.53;42.18
32642;BME280;19323;56.072;9.698;2022-08-04T07:10:11;100558.41;;;29.56;42.06
32642;BME280;19323;56.072;9.698;2022-08-04T07:12:47;100557.41;;;29.57;42.24
32642;BME280;19323;56.072;9.698;2022-08-04T07:15:15;100536.97;;;29.48;41.93
32642;BME280;19323;56.072;9.698;2022-08-04T07:17:44;100536.31;;;29.46;41.88
32642;BME280;19323;56.072;9.698;2022-08-04T07:20:15;100539.75;;;29.54;41.87
32642;BME280;19323;56.072;9.698;2022-08-04T07:23:00;100554.13;;;29.62;41.97
32642;BME280;19323;56.072;9.698;2022-08-04T07:25:27;100541.47;;;29.62;42.01
32642;BME280;19323;56.072;9.698;2022-08-04T07:28:14;100540.81;;;29.60;41.75
32642;BME280;19323;56.072;9.698;2022-08-04T07:30:42;100548.34;;;29.65;41.98
32642;BME280;19323;56.072;9.698;2022-08-04T07:33:09;100539.25;;;29.66;41.84
32642;BME280;19323;56.072;9.698;2022-08-04T07:35:37;100537.75;;;29.63;41.82
32642;BME280;19323;56.072;9.698;2022-08-04T07:38:23;100536.34;;;29.67;41.78
32642;BME280;19323;56.072;9.698;2022-08-04T07:40:53;100538.00;;;29.68;41.80
32642;BME280;19323;56.072;9.698;2022-08-04T07:43:20;100533.28;;;29.70;41.77
32642;BME280;19323;56.072;9.698;2022-08-04T07:45:47;100542.22;;;29.71;41.87
32642;BME280;19323;56.072;9.698;2022-08-04T07:48:14;100534.94;;;29.71;41.66
32642;BME280;19323;56.072;9.698;2022-08-04T07:50:44;100534.78;;;29.73;41.73
32642;BME280;19323;56.072;9.698;2022-08-04T07:53:12;100530.19;;;29.73;41.84
32642;BME280;19323;56.072;9.698;2022-08-04T07:56:00;100498.88;;;29.57;41.64
32642;BME280;19323;56.072;9.698;2022-08-04T07:58:27;100507.69;;;29.66;41.56
32642;BME280;19323;56.072;9.698;2022-08-04T08:00:56;100499.13;;;29.63;41.50
32642;BME280;19323;56.072;9.698;2022-08-04T08:03:24;100500.50;;;29.73;41.77
32642;BME280;19323;56.072;9.698;2022-08-04T08:05:52;100486.09;;;29.66;41.79
32642;BME280;19323;56.072;9.698;2022-08-04T08:08:39;100514.53;;;29.84;41.70
32642;BME280;19323;56.072;9.698;2022-08-04T08:11:06;100512.47;;;29.86;41.61
32642;BME280;19323;56.072;9.698;2022-08-04T08:13:33;100512.28;;;29.87;41.74
32642;BME280;19323;56.072;9.698;2022-08-04T08:16:00;100484.59;;;29.78;41.77
32642;BME280;19323;56.072;9.698;2022-08-04T08:18:28;100495.03;;;29.88;41.48
32642;BME280;19323;56.072;9.698;2022-08-04T08:20:55;100349.47;;;29.01;41.64
32642;BME280;19323;56.072;9.698;2022-08-04T08:23:22;100485.88;;;29.83;41.64
32642;BME280;19323;56.072;9.698;2022-08-04T08:25:50;100482.59;;;29.87;41.56
32642;BME280;19323;56.072;9.698;2022-08-04T08:28:17;100494.28;;;29.94;41.36
32642;BME280;19323;56.072;9.698;2022-08-04T08:30:43;100487.63;;;29.97;41.41
32642;BME280;19323;56.072;9.698;2022-08-04T08:33:11;100464.28;;;29.83;41.56
32642;BME280;19323;56.072;9.698;2022-08-04T08:35:54;100489.97;;;30.00;41.51
32642;BME280;19323;56.072;9.698;2022-08-04T08:38:57;100476.38;;;29.93;41.21
32642;BME280;19323;56.072;9.698;2022-08-04T08:41:48;100479.16;;;30.00;41.45
32642;BME280;19323;56.072;9.698;2022-08-04T08:52:37;100490.66;;;30.09;41.24
32642;BME280;19323;56.072;9.698;2022-08-04T09:04:22;100490.72;;;30.15;41.29
32642;BME280;19323;56.072;9.698;2022-08-04T09:09:45;100492.19;;;30.18;41.60
32642;BME280;19323;56.072;9.698;2022-08-04T09:12:29;100468.66;;;30.12;41.55
32642;BME280;19323;56.072;9.698;2022-08-04T09:15:53;100489.06;;;30.21;41.30
32642;BME280;19323;56.072;9.698;2022-08-04T09:20:44;100453.69;;;30.09;41.49
32642;BME280;19323;56.072;9.698;2022-08-04T09:23:19;100479.56;;;30.25;41.46
32642;BME280;19323;56.072;9.698;2022-08-04T09:25:57;100488.47;;;30.26;41.40
32642;BME280;19323;56.072;9.698;2022-08-04T09:28:28;100500.78;;;30.28;41.41
32642;BME280;19323;56.072;9.698;2022-08-04T09:31:21;100489.16;;;30.28;41.32
32642;BME280;19323;56.072;9.698;2022-08-04T09:39:24;100490.44;;;30.32;41.24
32642;BME280;19323;56.072;9.698;2022-08-04T09:47:34;100487.31;;;30.35;41.46
32642;BME280;19323;56.072;9.698;2022-08-04T09:50:16;100485.47;;;30.35;41.31
32642;BME280;19323;56.072;9.698;2022-08-04T09:58:51;100484.06;;;30.39;41.09
32642;BME280;19323;56.072;9.698;2022-08-04T10:01:24;100470.31;;;30.41;41.04
32642;BME280;19323;56.072;9.698;2022-08-04T10:04:02;100472.00;;;30.42;41.15
32642;BME280;19323;56.072;9.698;2022-08-04T10:06:54;100421.06;;;30.11;41.11
32642;BME280;19323;56.072;9.698;2022-08-04T10:12:25;100472.25;;;30.47;41.09
32642;BME280;19323;56.072;9.698;2022-08-04T10:15:12;100477.28;;;30.50;40.99
32642;BME280;19323;56.072;9.698;2022-08-04T10:23:22;100471.44;;;30.53;41.14
32642;BME280;19323;56.072;9.698;2022-08-04T10:28:43;100454.81;;;30.56;41.06
32642;BME280;19323;56.072;9.698;2022-08-04T10:31:16;100448.41;;;30.57;40.68
32642;BME280;19323;56.072;9.698;2022-08-04T10:33:51;100449.03;;;30.59;40.94
32642;BME280;19323;56.072;9.698;2022-08-04T10:36:23;100446.13;;;30.61;40.87
32642;BME280;19323;56.072;9.698;2022-08-04T10:39:12;100427.84;;;30.63;40.79
32642;BME280;19323;56.072;9.698;2022-08-04T10:42:05;100428.69;;;30.64;40.55
32642;BME280;19323;56.072;9.698;2022-08-04T10:44:46;100437.44;;;30.66;40.77
32642;BME280;19323;56.072;9.698;2022-08-04T10:47:25;100436.38;;;30.67;40.96
32642;BME280;19323;56.072;9.698;2022-08-04T10:50:00;100441.59;;;30.68;40.70
32642;BME280;19323;56.072;9.698;2022-08-04T10:55:18;100374.28;;;30.38;40.63
32642;BME280;19323;56.072;9.698;2022-08-04T10:57:56;100432.06;;;30.72;40.63
32642;BME280;19323;56.072;9.698;2022-08-04T11:00:26;100426.66;;;30.72;40.53
32642;BME280;19323;56.072;9.698;2022-08-04T11:08:14;100445.16;;;30.75;40.33
32642;BME280;19323;56.072;9.698;2022-08-04T11:14:14;100428.09;;;30.68;40.65
32642;BME280;19323;56.072;9.698;2022-08-04T11:16:46;100441.22;;;30.78;40.60
32642;BME280;19323;56.072;9.698;2022-08-04T11:19:46;100440.19;;;30.79;40.47
32642;BME280;19323;56.072;9.698;2022-08-04T11:22:23;100433.72;;;30.80;40.44
32642;BME280;19323;56.072;9.698;2022-08-04T11:24:54;100410.41;;;30.66;40.70
32642;BME280;19323;56.072;9.698;2022-08-04T11:27:39;100414.97;;;30.72;40.67
32642;BME280;19323;56.072;9.698;2022-08-04T11:30:09;100417.03;;;30.70;40.78
32642;BME280;19323;56.072;9.698;2022-08-04T11:35:56;100435.47;;;30.88;40.42
32642;BME280;19323;56.072;9.698;2022-08-04T11:38:36;100443.94;;;30.85;40.76
32642;BME280;19323;56.072;9.698;2022-08-04T11:41:07;100443.16;;;30.91;40.19
32642;BME280;19323;56.072;9.698;2022-08-04T11:43:43;100437.56;;;30.92;40.23
32642;BME280;19323;56.072;9.698;2022-08-04T11:46:42;100412.00;;;30.95;40.35
32642;BME280;19323;56.072;9.698;2022-08-04T11:49:15;100339.50;;;30.64;40.69
32642;BME280;19323;56.072;9.698;2022-08-04T11:51:49;100381.00;;;30.97;40.37
32642;BME280;19323;56.072;9.698;2022-08-04T11:54:17;100400.56;;;30.99;40.33
32642;BME280;19323;56.072;9.698;2022-08-04T11:56:44;100403.88;;;31.02;40.38
32642;BME280;19323;56.072;9.698;2022-08-04T11:59:11;100414.72;;;31.02;40.41
32642;BME280;19323;56.072;9.698;2022-08-04T12:01:56;100424.09;;;31.06;40.31
32642;BME280;19323;56.072;9.698;2022-08-04T12:04:44;100445.31;;;31.09;40.37
32642;BME280;19323;56.072;9.698;2022-08-04T12:07:19;100462.16;;;31.04;40.60
32642;BME280;19323;56.072;9.698;2022-08-04T12:10:21;100478.00;;;31.14;40.75
32642;BME280;19323;56.072;9.698;2022-08-04T12:16:34;100466.78;;;31.17;40.89
32642;BME280;19323;56.072;9.698;2022-08-04T12:19:34;100433.63;;;31.02;40.24
32642;BME280;19323;56.072;9.698;2022-08-04T12:22:24;100476.16;;;31.21;40.56
32642;BME280;19323;56.072;9.698;2022-08-04T12:25:02;100471.38;;;31.23;40.20
32642;BME280;19323;56.072;9.698;2022-08-04T12:27:36;100481.97;;;31.25;40.29
32642;BME280;19323;56.072;9.698;2022-08-04T12:30:07;100484.69;;;31.25;40.12
32642;BME280;19323;56.072;9.698;2022-08-04T12:38:31;100440.56;;;31.24;40.52
32642;BME280;19323;56.072;9.698;2022-08-04T12:40:59;100444.72;;;31.33;40.37
32642;BME280;19323;56.072;9.698;2022-08-04T12:43:41;100368.28;;;30.91;40.76
32642;BME280;19323;56.072;9.698;2022-08-04T12:46:10;100427.47;;;31.28;40.38
32642;BME280;19323;56.072;9.698;2022-08-04T12:48:43;100444.16;;;31.38;40.67
32642;BME280;19323;56.072;9.698;2022-08-04T12:51:11;100423.50;;;31.30;40.45
32642;BME280;19323;56.072;9.698;2022-08-04T12:53:59;100416.03;;;31.32;40.67
32642;BME280;19323;56.072;9.698;2022-08-04T12:56:27;100428.97;;;31.44;40.54
32642;BME280;19323;56.072;9.698;2022-08-04T12:59:01;100407.28;;;31.30;40.76
32642;BME280;19323;56.072;9.698;2022-08-04T13:01:28;100419.56;;;31.39;40.24
32642;BME280;19323;56.072;9.698;2022-08-04T13:04:22;100408.13;;;31.37;40.47
32642;BME280;19323;56.072;9.698;2022-08-04T13:07:19;100431.91;;;31.49;40.37
32642;BME280;19323;56.072;9.698;2022-08-04T13:09:50;100430.44;;;31.53;40.78
32642;BME280;19323;56.072;9.698;2022-08-04T13:12:23;100425.66;;;31.48;40.63
32642;BME280;19323;56.072;9.698;2022-08-04T13:15:07;100446.47;;;31.54;40.64
32642;BME280;19323;56.072;9.698;2022-08-04T13:20:28;100429.22;;;31.55;40.57
32642;BME280;19323;56.072;9.698;2022-08-04T13:23:09;100431.69;;;31.57;40.36
32642;BME280;19323;56.072;9.698;2022-08-04T13:25:41;100405.06;;;31.47;40.41
32642;BME280;19323;56.072;9.698;2022-08-04T13:28:30;100425.25;;;31.58;40.74
32642;BME280;19323;56.072;9.698;2022-08-04T13:31:01;100413.56;;;31.57;40.77
32642;BME280;19323;56.072;9.698;2022-08-04T13:33:35;100428.59;;;31.60;40.22
32642;BME280;19323;56.072;9.698;2022-08-04T13:36:06;100425.88;;;31.60;40.34
32642;BME280;19323;56.072;9.698;2022-08-04T13:38:35;100418.59;;;31.60;40.39
32642;BME280;19323;56.072;9.698;2022-08-04T13:41:05;100425.66;;;31.61;40.23
32642;BME280;19323;56.072;9.698;2022-08-04T13:43:47;100421.09;;;31.62;40.87
32642;BME280;19323;56.072;9.698;2022-08-04T13:46:46;100423.56;;;31.64;40.27
32642;BME280;19323;56.072;9.698;2022-08-04T13:49:18;100419.84;;;31.65;40.98
32642;BME280;19323;56.072;9.698;2022-08-04T13:52:06;100434.19;;;31.65;40.78
32642;BME280;19323;56.072;9.698;2022-08-04T13:54:40;100435.03;;;31.66;40.83
32642;BME280;19323;56.072;9.698;2022-08-04T13:57:17;100453.97;;;31.66;40.43
32642;BME280;19323;56.072;9.698;2022-08-04T13:59:51;100471.91;;;31.67;40.68
32642;BME280;19323;56.072;9.698;2022-08-04T14:02:33;100453.16;;;31.52;40.84
32642;BME280;19323;56.072;9.698;2022-08-04T14:05:14;100473.56;;;31.68;40.37
32642;BME280;19323;56.072;9.698;2022-08-04T14:07:46;100469.41;;;31.65;40.84
32642;BME280;19323;56.072;9.698;2022-08-04T14:10:13;100468.16;;;31.68;40.47
32642;BME280;19323;56.072;9.698;2022-08-04T14:12:47;100495.03;;;31.69;40.40
32642;BME280;19323;56.072;9.698;2022-08-04T14:15:40;100506.88;;;31.68;40.32
32642;BME280;19323;56.072;9.698;2022-08-04T14:18:29;100491.50;;;31.69;40.67
32642;BME280;19323;56.072;9.698;2022-08-04T14:20:58;100461.91;;;31.67;40.67
32642;BME280;19323;56.072;9.698;2022-08-04T14:23:25;100446.50;;;31.68;40.70
32642;BME280;19323;56.072;9.698;2022-08-04T14:25:58;100455.44;;;31.68;40.45
32642;BME280;19323;56.072;9.698;2022-08-04T14:28:29;100463.56;;;31.68;40.16
32642;BME280;19323;56.072;9.698;2022-08-04T14:31:19;100458.16;;;31.68;40.39
32642;BME280;19323;56.072;9.698;2022-08-04T14:33:48;100463.56;;;31.68;40.38
32642;BME280;19323;56.072;9.698;2022-08-04T14:36:43;100468.97;;;31.68;40.45
32642;BME280;19323;56.072;9.698;2022-08-04T14:39:40;100475.25;;;31.69;40.83
32642;BME280;19323;56.072;9.698;2022-08-04T14:42:40;100470.84;;;31.68;40.31
32642;BME280;19323;56.072;9.698;2022-08-04T14:45:07;100461.72;;;31.69;41.00
32642;BME280;19323;56.072;9.698;2022-08-04T14:47:42;100455.44;;;31.68;40.75
32642;BME280;19323;56.072;9.698;2022-08-04T14:50:18;100452.72;;;31.68;40.35
32642;BME280;19323;56.072;9.698;2022-08-04T14:52:45;100463.56;;;31.68;40.84
32642;BME280;19323;56.072;9.698;2022-08-04T14:55:17;100467.13;;;31.69;41.17
32642;BME280;19323;56.072;9.698;2022-08-04T14:57:44;100459.00;;;31.69;40.97
32642;BME280;19323;56.072;9.698;2022-08-04T15:00:34;100450.66;;;31.70;41.17
32642;BME280;19323;56.072;9.698;2022-08-04T15:03:06;100432.75;;;31.69;40.76
32642;BME280;19323;56.072;9.698;2022-08-04T15:05:36;100447.94;;;31.70;40.76
32642;BME280;19323;56.072;9.698;2022-08-04T15:08:23;100446.72;;;31.73;41.02
32642;BME280;19323;56.072;9.698;2022-08-04T15:10:57;100431.28;;;31.67;40.86
32642;BME280;19323;56.072;9.698;2022-08-04T15:13:27;100436.50;;;31.81;40.79
32642;BME280;19323;56.072;9.698;2022-08-04T15:15:54;100420.66;;;31.78;40.69
32642;BME280;19323;56.072;9.698;2022-08-04T15:18:35;100440.88;;;31.96;40.76
32642;BME280;19323;56.072;9.698;2022-08-04T15:21:03;100435.28;;;31.97;40.42
32642;BME280;19323;56.072;9.698;2022-08-04T15:23:29;100438.19;;;32.02;40.41
32642;BME280;19323;56.072;9.698;2022-08-04T15:26:08;100438.81;;;32.05;40.24
32642;BME280;19323;56.072;9.698;2022-08-04T15:28:37;100426.91;;;31.99;40.61
32642;BME280;19323;56.072;9.698;2022-08-04T15:31:05;100432.97;;;32.01;40.53
32642;BME280;19323;56.072;9.698;2022-08-04T15:33:54;100447.75;;;32.05;40.71
32642;BME280;19323;56.072;9.698;2022-08-04T15:36:29;100441.72;;;32.03;40.42
32642;BME280;19323;56.072;9.698;2022-08-04T15:41:59;100432.31;;;31.92;40.48
32642;BME280;19323;56.072;9.698;2022-08-04T15:44:45;100454.63;;;32.01;40.37
32642;BME280;19323;56.072;9.698;2022-08-04T15:47:14;100467.31;;;31.94;40.41
32642;BME280;19323;56.072;9.698;2022-08-04T15:49:43;100522.78;;;31.98;40.91
32642;BME280;19323;56.072;9.698;2022-08-04T15:52:14;100495.50;;;31.99;41.19
32642;BME280;19323;56.072;9.698;2022-08-04T15:54:43;100437.75;;;31.99;40.60
32642;BME280;19323;56.072;9.698;2022-08-04T16:19:09;100521.50;;;31.94;40.64
32642;BME280;19323;56.072;9.698;2022-08-04T16:21:53;100517.97;;;31.93;41.12
32642;BME280;19323;56.072;9.698;2022-08-04T16:24:42;100503.59;;;31.93;41.19
32642;BME280;19323;56.072;9.698;2022-08-04T16:27:09;100489.19;;;31.92;40.83
32642;BME280;19323;56.072;9.698;2022-08-04T16:34:33;100440.69;;;31.77;41.24
32642;BME280;19323;56.072;9.698;2022-08-04T16:37:36;100455.25;;;31.83;40.71
32642;BME280;19323;56.072;9.698;2022-08-04T16:42:49;100477.53;;;31.92;40.93
32642;BME280;19323;56.072;9.698;2022-08-04T16:45:16;100479.84;;;31.88;41.45
32642;BME280;19323;56.072;9.698;2022-08-04T16:50:17;100485.66;;;31.85;41.67
32642;BME280;19323;56.072;9.698;2022-08-04T16:52:49;100498.16;;;31.93;41.53
32642;BME280;19323;56.072;9.698;2022-08-04T16:55:17;100482.94;;;31.92;41.08
32642;BME280;19323;56.072;9.698;2022-08-04T16:57:52;100480.88;;;31.87;41.52
32642;BME280;19323;56.072;9.698;2022-08-04T17:00:36;100483.56;;;31.94;41.41
32642;BME280;19323;56.072;9.698;2022-08-04T17:03:07;100490.69;;;31.95;41.09
32642;BME280;19323;56.072;9.698;2022-08-04T17:05:34;100490.69;;;31.95;41.67
32642;BME280;19323;56.072;9.698;2022-08-04T17:08:06;100506.94;;;31.95;41.16
32642;BME280;19323;56.072;9.698;2022-08-04T17:10:53;100504.22;;;31.95;41.46
32642;BME280;19323;56.072;9.698;2022-08-04T17:16:19;100509.00;;;31.93;41.49
32642;BME280;19323;56.072;9.698;2022-08-04T17:18:51;100509.63;;;31.95;41.57
32642;BME280;19323;56.072;9.698;2022-08-04T17:21:23;100506.94;;;31.95;41.51
32642;BME280;19323;56.072;9.698;2022-08-04T17:23:54;100488.78;;;31.82;41.43
32642;BME280;19323;56.072;9.698;2022-08-04T17:26:43;100512.34;;;31.95;41.08
32642;BME280;19323;56.072;9.698;2022-08-04T17:29:17;100515.88;;;31.95;41.11
32642;BME280;19323;56.072;9.698;2022-08-04T17:31:45;100516.91;;;31.94;40.79
32642;BME280;19323;56.072;9.698;2022-08-04T17:34:14;100511.47;;;31.94;41.27
32642;BME280;19323;56.072;9.698;2022-08-04T17:36:46;100520.66;;;31.93;41.35